Time;durP1;ratioP1;P1;durP2;ratioP2;P2;SDS_P1;SDS_P2;PMS_P1;PMS_P2;Temp;Humidity;BMP_temperature;BMP_pressure;BME280_temperature;BME280_humidity;BME280_pressure;Samples;Min_cycle;Max_cycle;Signal;HPM_P1;HPM_P2
2021/04/03 00:00:28;;;;;;;17.77;5.40;;;7.50;99.90;;;;;;4991602;28;20451;-76
2021/04/03 00:02:54;;;;;;;13.20;5.70;;;7.60;99.90;;;;;;4994282;28;20510;-76
2021/04/03 00:05:21;;;;;;;8.10;5.60;;;7.60;99.90;;;;;;5007504;28;20456;-75
2021/04/03 00:07:46;;;;;;;15.67;5.17;;;7.60;99.90;;;;;;4976791;28;20842;-76
2021/04/03 00:10:28;;;;;;;10.73;4.50;;;7.50;99.90;;;;;;4978849;28;20468;-75
2021/04/03 00:12:54;;;;;;;7.43;5.57;;;7.60;99.90;;;;;;4994973;28;20168;-75
2021/04/03 00:15:20;;;;;;;12.53;5.67;;;7.60;99.90;;;;;;4978795;28;20946;-75
2021/04/03 00:17:46;;;;;;;8.63;5.53;;;7.50;99.90;;;;;;4982729;28;20431;-75
2021/04/03 00:20:14;;;;;;;16.63;4.10;;;7.50;99.90;;;;;;4976336;28;20189;-76
2021/04/03 00:22:40;;;;;;;14.20;5.13;;;7.60;99.90;;;;;;4979831;28;20173;-76
2021/04/03 00:25:07;;;;;;;13.70;5.20;;;7.50;99.90;;;;;;4986318;28;20496;-75
2021/04/03 00:27:33;;;;;;;13.17;5.80;;;7.50;99.90;;;;;;4980607;28;20432;-75
2021/04/03 00:29:58;;;;;;;15.33;5.13;;;7.50;99.90;;;;;;4975014;28;20458;-75
2021/04/03 00:32:24;;;;;;;10.17;4.20;;;7.40;99.90;;;;;;4977241;28;20205;-76
2021/04/03 00:34:49;;;;;;;14.03;4.60;;;7.40;99.90;;;;;;4980404;28;20174;-76
2021/04/03 00:37:15;;;;;;;16.97;5.67;;;7.30;99.90;;;;;;4981610;28;20228;-76
2021/04/03 00:39:41;;;;;;;15.90;5.10;;;7.30;99.90;;;;;;4980889;28;20193;-75
2021/04/03 00:42:13;;;;;;;11.87;4.50;;;7.30;99.90;;;;;;4996058;28;20177;-76
2021/04/03 00:44:39;;;;;;;10.37;5.03;;;7.20;99.90;;;;;;4995334;28;20417;-76
2021/04/03 00:47:04;;;;;;;12.53;4.10;;;7.20;99.90;;;;;;4980674;28;20471;-76
2021/04/03 00:49:30;;;;;;;11.93;6.10;;;7.20;99.90;;;;;;4981237;28;20186;-76
2021/04/03 00:51:56;;;;;;;7.67;5.17;;;7.20;99.90;;;;;;4980769;28;20197;-76
2021/04/03 00:54:21;;;;;;;14.13;4.80;;;7.20;99.90;;;;;;4981605;28;20158;-76
2021/04/03 00:56:47;;;;;;;16.93;4.90;;;7.20;99.90;;;;;;4980781;28;20479;-76
2021/04/03 00:59:12;;;;;;;11.03;4.97;;;7.20;99.90;;;;;;4984953;28;20285;-76
2021/04/03 01:01:38;;;;;;;15.53;5.00;;;7.10;99.90;;;;;;4981622;28;20262;-75
2021/04/03 01:04:03;;;;;;;11.00;4.47;;;7.10;99.90;;;;;;4980591;28;20245;-75
2021/04/03 01:06:29;;;;;;;14.30;5.00;;;7.00;99.90;;;;;;4979286;28;20225;-75
2021/04/03 01:08:55;;;;;;;16.73;4.70;;;7.00;99.90;;;;;;4979858;28;20249;-75
2021/04/03 01:11:23;;;;;;;10.77;4.37;;;7.00;99.90;;;;;;4979177;28;20324;-76
2021/04/03 01:14:07;;;;;;;8.47;5.27;;;6.90;99.90;;;;;;4977978;28;20177;-75
2021/04/03 01:16:48;;;;;;;15.33;5.23;;;6.90;99.90;;;;;;4979561;28;20436;-76
2021/04/03 01:19:47;;;;;;;16.40;5.80;;;6.80;99.90;;;;;;4979351;28;20425;-76
2021/04/03 01:22:40;;;;;;;12.43;5.07;;;6.90;99.90;;;;;;4973902;28;20459;-76
2021/04/03 01:25:24;;;;;;;17.93;5.60;;;6.80;99.90;;;;;;5010773;28;20543;-75
2021/04/03 01:28:05;;;;;;;10.70;4.83;;;6.70;99.90;;;;;;4988316;28;20823;-75
2021/04/03 01:30:33;;;;;;;14.93;4.80;;;6.70;99.90;;;;;;4989819;28;20439;-76
2021/04/03 01:33:07;;;;;;;15.50;5.13;;;6.70;99.90;;;;;;4980032;28;20929;-75
2021/04/03 01:35:41;;;;;;;9.17;4.40;;;6.60;99.90;;;;;;4980054;28;20492;-76
2021/04/03 01:38:14;;;;;;;12.23;4.67;;;6.50;99.90;;;;;;4978544;28;20425;-75
2021/04/03 01:40:41;;;;;;;21.90;4.80;;;6.50;99.90;;;;;;4993854;28;20516;-75
2021/04/03 01:43:14;;;;;;;18.43;5.03;;;6.50;99.90;;;;;;4979514;28;20922;-75
2021/04/03 01:45:41;;;;;;;9.93;5.27;;;6.40;99.90;;;;;;4979931;28;20507;-75
2021/04/03 01:48:09;;;;;;;11.00;4.13;;;6.40;99.90;;;;;;4977909;28;20483;-75
2021/04/03 01:50:38;;;;;;;13.30;4.60;;;6.30;99.90;;;;;;4975823;28;20816;-75
2021/04/03 01:53:03;;;;;;;17.20;5.63;;;6.30;99.90;;;;;;4977453;28;20770;-75
2021/04/03 01:55:30;;;;;;;14.73;4.53;;;6.20;99.90;;;;;;4993614;28;20539;-75
2021/04/03 01:57:57;;;;;;;26.90;5.57;;;6.20;99.90;;;;;;4992511;28;20189;-75
2021/04/03 02:00:26;;;;;;;12.27;4.57;;;6.20;99.90;;;;;;4979897;28;20460;-75
2021/04/03 02:02:52;;;;;;;13.67;3.70;;;6.20;99.90;;;;;;4979254;28;20433;-76
2021/04/03 02:05:20;;;;;;;13.53;4.63;;;6.20;99.90;;;;;;4984738;28;20815;-75
2021/04/03 02:07:48;;;;;;;8.97;3.97;;;6.20;99.90;;;;;;5025680;28;20428;-75
2021/04/03 02:10:23;;;;;;;13.03;4.60;;;6.20;99.90;;;;;;4977461;28;20456;-75
2021/04/03 02:12:49;;;;;;;8.83;3.70;;;6.20;99.90;;;;;;4992163;28;20459;-75
2021/04/03 02:15:15;;;;;;;6.00;2.80;;;6.20;99.90;;;;;;4986491;28;21121;-75
2021/04/03 02:17:44;;;;;;;18.73;4.43;;;6.10;99.90;;;;;;4982994;28;20186;-75
2021/04/03 02:20:11;;;;;;;12.10;3.33;;;6.20;99.90;;;;;;4987574;28;20814;-75
2021/04/03 02:22:37;;;;;;;14.60;4.30;;;6.10;99.90;;;;;;4993660;28;20401;-75
2021/04/03 02:25:07;;;;;;;17.83;4.40;;;6.20;99.90;;;;;;4978225;28;20831;-75
2021/04/03 02:27:33;;;;;;;14.60;3.13;;;6.20;99.90;;;;;;4987102;28;20509;-75
2021/04/03 02:30:11;;;;;;;13.80;4.00;;;6.30;99.90;;;;;;4988359;28;20448;-75
2021/04/03 02:33:03;;;;;;;9.53;3.33;;;6.30;99.90;;;;;;4991808;28;20661;-75
2021/04/03 02:35:29;;;;;;;14.93;3.57;;;6.30;99.90;;;;;;4982824;28;20437;-75
2021/04/03 02:37:58;;;;;;;11.07;3.70;;;6.30;99.90;;;;;;4979704;28;21056;-75
2021/04/03 02:40:26;;;;;;;9.37;3.10;;;6.20;99.90;;;;;;4996794;28;20199;-75
2021/04/03 02:43:03;;;;;;;8.03;3.30;;;6.20;99.90;;;;;;4987416;28;20428;-75
2021/04/03 02:45:51;;;;;;;24.37;4.20;;;6.30;99.90;;;;;;4990126;28;20804;-75
2021/04/03 02:48:19;;;;;;;13.40;3.53;;;6.30;99.90;;;;;;4981994;28;20491;-75
2021/04/03 02:50:51;;;;;;;9.77;3.30;;;6.40;99.90;;;;;;4990891;28;20527;-75
2021/04/03 02:53:20;;;;;;;19.50;3.97;;;6.50;99.90;;;;;;4991681;28;20959;-75
2021/04/03 02:55:48;;;;;;;11.97;3.87;;;6.40;99.90;;;;;;4993880;28;20538;-75
2021/04/03 02:58:19;;;;;;;7.47;3.00;;;6.50;99.90;;;;;;4978917;28;20436;-75
2021/04/03 03:00:46;;;;;;;11.30;3.50;;;6.60;99.90;;;;;;4989842;28;20459;-75
2021/04/03 03:03:13;;;;;;;8.80;3.90;;;6.70;99.90;;;;;;4977121;28;20453;-75
2021/04/03 03:05:41;;;;;;;8.00;4.40;;;6.70;99.90;;;;;;4975613;28;20846;-75
2021/04/03 03:08:09;;;;;;;12.93;5.67;;;6.70;99.90;;;;;;4992414;28;20416;-75
2021/04/03 03:10:35;;;;;;;8.30;5.23;;;6.80;99.90;;;;;;4982727;28;20448;-75
2021/04/03 03:13:02;;;;;;;12.13;4.40;;;6.80;99.90;;;;;;4979796;28;20522;-75
2021/04/03 03:15:31;;;;;;;9.37;4.33;;;6.90;99.90;;;;;;4989428;28;20796;-75
2021/04/03 03:17:58;;;;;;;14.00;4.70;;;6.90;99.90;;;;;;4980768;28;20506;-75
2021/04/03 03:20:26;;;;;;;11.83;4.70;;;6.80;99.90;;;;;;4973054;28;21028;-75
2021/04/03 03:22:52;;;;;;;8.47;4.47;;;6.80;99.90;;;;;;4972705;28;20441;-75
2021/04/03 03:25:17;;;;;;;10.83;4.73;;;6.80;99.90;;;;;;4977431;28;20789;-75
2021/04/03 03:27:45;;;;;;;16.20;4.67;;;6.90;99.90;;;;;;4976677;28;20493;-75
2021/04/03 03:30:14;;;;;;;13.37;3.73;;;6.90;99.90;;;;;;4987013;28;20242;-75
2021/04/03 03:32:40;;;;;;;11.97;4.57;;;6.90;99.90;;;;;;4992672;28;20404;-75
2021/04/03 03:35:06;;;;;;;13.73;4.17;;;6.80;99.90;;;;;;4983638;28;20447;-75
2021/04/03 03:37:32;;;;;;;9.30;3.60;;;6.90;99.90;;;;;;4988812;28;20184;-75
2021/04/03 03:39:59;;;;;;;7.50;3.40;;;7.00;99.90;;;;;;4973533;28;20549;-75
2021/04/03 03:42:26;;;;;;;13.63;3.80;;;7.00;99.90;;;;;;4982328;28;20432;-75
2021/04/03 03:44:53;;;;;;;9.70;4.00;;;6.90;99.90;;;;;;4986494;28;20444;-75
2021/04/03 03:47:18;;;;;;;17.10;4.03;;;7.00;99.90;;;;;;4985896;28;20486;-74
2021/04/03 03:49:44;;;;;;;9.60;3.17;;;6.80;99.90;;;;;;4990533;28;20451;-74
2021/04/03 03:52:10;;;;;;;9.17;3.43;;;6.90;99.90;;;;;;4990340;28;20256;-74
2021/04/03 03:54:35;;;;;;;15.37;2.80;;;6.80;99.90;;;;;;4990899;28;20685;-74
2021/04/03 03:57:02;;;;;;;12.13;3.37;;;6.80;99.90;;;;;;4992298;28;20784;-74
2021/04/03 03:59:28;;;;;;;11.70;3.47;;;6.80;99.90;;;;;;4988688;28;20268;-74
2021/04/03 04:01:53;;;;;;;9.23;3.40;;;6.90;99.90;;;;;;4984688;28;20436;-74
2021/04/03 04:04:19;;;;;;;15.57;3.87;;;6.80;99.90;;;;;;4973724;28;20189;-74
2021/04/03 04:06:44;;;;;;;12.10;3.27;;;6.80;99.90;;;;;;4986979;28;20700;-74
2021/04/03 04:09:10;;;;;;;10.03;3.23;;;6.80;99.90;;;;;;4984377;28;20181;-74
2021/04/03 04:11:35;;;;;;;9.70;3.60;;;6.80;99.90;;;;;;4987344;28;20670;-74
2021/04/03 04:14:02;;;;;;;9.03;2.47;;;6.80;99.90;;;;;;4987591;28;20245;-74
2021/04/03 04:16:28;;;;;;;9.40;3.00;;;6.80;99.90;;;;;;4976239;28;20694;-74
2021/04/03 04:18:53;;;;;;;18.80;3.43;;;6.80;99.90;;;;;;4986596;28;20428;-74
2021/04/03 04:21:19;;;;;;;16.53;3.60;;;6.90;99.90;;;;;;4992014;28;20694;-74
2021/04/03 04:23:45;;;;;;;15.70;3.90;;;6.90;99.90;;;;;;4976109;28;20197;-74
2021/04/03 04:26:11;;;;;;;6.50;3.30;;;7.00;99.90;;;;;;4992219;28;20223;-74
2021/04/03 04:28:36;;;;;;;20.83;4.00;;;7.10;99.90;;;;;;4988531;28;20440;-74
2021/04/03 04:31:03;;;;;;;11.37;3.13;;;7.10;99.90;;;;;;4987261;28;20232;-74
2021/04/03 04:33:29;;;;;;;9.10;3.40;;;7.10;99.90;;;;;;4981890;28;20260;-74
2021/04/03 04:35:55;;;;;;;5.43;3.00;;;7.10;99.90;;;;;;4992190;28;20424;-74
2021/04/03 04:38:21;;;;;;;16.13;3.50;;;7.10;99.90;;;;;;4991286;28;20396;-74
2021/04/03 04:40:47;;;;;;;17.73;4.10;;;7.10;99.90;;;;;;4984973;28;20592;-75
2021/04/03 04:43:12;;;;;;;7.37;3.50;;;7.10;99.90;;;;;;4995062;28;20419;-74
2021/04/03 04:45:38;;;;;;;11.60;5.10;;;7.10;99.90;;;;;;4992903;28;20568;-75
2021/04/03 04:48:04;;;;;;;8.70;3.30;;;7.00;99.90;;;;;;4989537;28;20181;-75
2021/04/03 04:50:29;;;;;;;10.03;2.90;;;6.90;99.90;;;;;;5028094;28;20197;-75
2021/04/03 04:52:55;;;;;;;14.73;3.00;;;6.80;99.90;;;;;;4996553;28;20236;-75
2021/04/03 04:55:20;;;;;;;12.30;3.30;;;6.80;99.90;;;;;;4984526;28;20654;-75
2021/04/03 04:57:46;;;;;;;9.07;3.13;;;6.80;99.90;;;;;;4993843;28;20184;-75
2021/04/03 05:00:12;;;;;;;11.73;3.40;;;6.80;99.90;;;;;;4986524;28;20630;-75
2021/04/03 05:02:38;;;;;;;10.03;2.87;;;6.80;99.90;;;;;;4995099;28;20181;-75
2021/04/03 05:05:04;;;;;;;17.87;4.43;;;6.70;99.90;;;;;;4992447;28;20443;-75
2021/04/03 05:07:30;;;;;;;10.80;4.27;;;6.80;99.90;;;;;;5026776;28;20235;-75
2021/04/03 05:09:55;;;;;;;14.80;3.63;;;6.80;99.90;;;;;;4979158;28;20445;-75
2021/04/03 05:12:21;;;;;;;15.40;3.33;;;6.80;99.90;;;;;;4977024;28;20714;-74
2021/04/03 05:14:46;;;;;;;14.23;4.10;;;6.90;99.90;;;;;;5012636;28;20169;-75
2021/04/03 05:17:12;;;;;;;13.90;4.50;;;6.80;99.90;;;;;;4981496;28;20173;-75
2021/04/03 05:19:38;;;;;;;15.50;2.97;;;6.90;99.90;;;;;;4984974;28;20554;-75
2021/04/03 05:22:03;;;;;;;10.40;3.17;;;6.80;99.90;;;;;;4988376;28;20548;-75
2021/04/03 05:24:29;;;;;;;6.50;2.77;;;6.90;99.90;;;;;;4989492;28;20213;-75
2021/04/03 05:26:54;;;;;;;23.07;4.67;;;6.80;99.90;;;;;;4987787;28;20241;-75
2021/04/03 05:29:20;;;;;;;18.37;4.20;;;6.70;99.90;;;;;;4978054;28;20193;-75
2021/04/03 05:31:46;;;;;;;9.03;2.83;;;6.70;99.90;;;;;;5016197;28;20651;-75
2021/04/03 05:34:11;;;;;;;18.70;3.20;;;6.70;99.90;;;;;;4979837;28;20603;-75
2021/04/03 05:36:37;;;;;;;12.00;3.63;;;6.70;99.90;;;;;;4977686;28;20261;-75
2021/04/03 05:39:03;;;;;;;19.63;4.57;;;6.70;99.90;;;;;;5010007;28;20184;-75
2021/04/03 05:41:28;;;;;;;11.60;4.43;;;6.70;99.90;;;;;;4980686;28;20271;-75
2021/04/03 05:43:56;;;;;;;13.53;4.60;;;6.70;99.90;;;;;;4982967;28;20177;-75
2021/04/03 05:46:23;;;;;;;12.53;4.30;;;6.60;99.90;;;;;;4988509;28;20198;-75
2021/04/03 05:48:49;;;;;;;18.73;4.60;;;6.60;99.90;;;;;;4986634;28;20424;-75
2021/04/03 05:51:16;;;;;;;16.63;4.10;;;6.60;99.90;;;;;;4994466;28;20448;-75
2021/04/03 05:53:42;;;;;;;12.03;3.80;;;6.70;99.90;;;;;;5025862;28;20432;-75
2021/04/03 05:56:08;;;;;;;25.03;5.20;;;6.80;99.90;;;;;;4981737;28;20453;-75
2021/04/03 05:58:33;;;;;;;17.70;5.10;;;6.80;99.90;;;;;;4978719;28;20586;-75
2021/04/03 06:00:59;;;;;;;10.60;4.27;;;6.90;99.90;;;;;;4987888;28;20204;-75
2021/04/03 06:03:25;;;;;;;11.00;4.30;;;7.10;99.90;;;;;;4976761;28;20252;-75
2021/04/03 06:05:52;;;;;;;13.57;4.53;;;7.10;99.90;;;;;;4981854;28;20339;-75
2021/04/03 06:08:18;;;;;;;20.63;4.43;;;7.30;99.90;;;;;;4982742;28;20227;-75
2021/04/03 06:11:10;;;;;;;16.90;5.00;;;7.50;99.90;;;;;;5008236;28;20906;-76
2021/04/03 06:13:35;;;;;;;13.93;3.90;;;7.90;99.90;;;;;;4995257;28;21072;-75
2021/04/03 06:16:01;;;;;;;12.30;4.70;;;8.50;99.90;;;;;;4980620;28;20499;-76
2021/04/03 06:18:26;;;;;;;9.83;3.27;;;9.00;99.90;;;;;;4984108;28;20184;-76
2021/04/03 06:21:06;;;;;;;12.80;4.07;;;9.40;99.90;;;;;;4993554;28;20216;-76
2021/04/03 06:23:32;;;;;;;14.73;4.07;;;9.80;99.90;;;;;;4992300;28;20185;-76
2021/04/03 06:25:58;;;;;;;11.77;3.97;;;10.10;99.90;;;;;;5023575;28;20467;-76
2021/04/03 06:28:32;;;;;;;10.43;4.10;;;10.50;99.90;;;;;;4992098;28;20273;-76
2021/04/03 06:30:59;;;;;;;15.83;3.87;;;11.10;99.90;;;;;;4984129;28;21001;-76
2021/04/03 06:33:25;;;;;;;15.37;4.83;;;11.30;99.90;;;;;;4977061;28;20958;-76
2021/04/03 06:36:11;;;;;;;13.43;3.90;;;11.50;99.90;;;;;;4981900;28;20523;-76
2021/04/03 06:38:38;;;;;;;13.43;5.57;;;11.90;99.90;;;;;;4977543;28;20452;-76
2021/04/03 06:41:25;;;;;;;13.03;4.73;;;12.60;99.90;;;;;;4975626;28;20449;-76
2021/04/03 06:44:08;;;;;;;17.83;5.10;;;12.60;99.90;;;;;;4976604;28;20468;-76
2021/04/03 06:46:34;;;;;;;18.77;5.13;;;12.40;99.90;;;;;;4992511;28;20483;-76
2021/04/03 06:49:01;;;;;;;13.23;4.43;;;12.90;99.90;;;;;;4982298;28;20457;-76
2021/04/03 06:51:28;;;;;;;13.30;4.17;;;13.40;99.90;;;;;;4993929;28;20416;-76
2021/04/03 06:53:55;;;;;;;7.07;3.90;;;13.80;99.90;;;;;;4996359;28;20404;-76
2021/04/03 06:56:23;;;;;;;14.90;5.23;;;13.90;99.90;;;;;;4993994;28;20448;-76
2021/04/03 06:59:01;;;;;;;15.60;4.20;;;14.40;99.90;;;;;;4988564;28;20485;-77
2021/04/03 07:01:36;;;;;;;17.43;4.90;;;14.40;99.90;;;;;;4991650;28;20956;-77
2021/04/03 07:04:09;;;;;;;8.63;3.63;;;14.70;99.90;;;;;;4995570;28;20399;-77
2021/04/03 07:06:36;;;;;;;10.57;3.90;;;14.60;99.90;;;;;;4983416;28;20462;-77
2021/04/03 07:09:04;;;;;;;11.17;3.50;;;14.70;99.90;;;;;;4984677;28;20443;-76
2021/04/03 07:11:32;;;;;;;15.13;4.23;;;14.40;99.90;;;;;;4994344;28;20431;-76
2021/04/03 07:14:00;;;;;;;13.57;4.90;;;13.80;99.90;;;;;;5026900;28;21109;-77
2021/04/03 07:16:27;;;;;;;12.40;3.77;;;13.40;99.90;;;;;;4978820;28;21241;-76
2021/04/03 07:18:55;;;;;;;18.50;5.40;;;12.80;99.90;;;;;;4984626;28;20529;-76
2021/04/03 07:21:21;;;;;;;16.10;4.07;;;12.20;99.90;;;;;;4978354;28;20945;-76
2021/04/03 07:23:49;;;;;;;20.93;5.07;;;12.00;99.90;;;;;;4991154;28;20805;-76
2021/04/03 07:26:16;;;;;;;22.10;5.57;;;11.50;99.90;;;;;;4993820;28;20869;-76
2021/04/03 07:28:42;;;;;;;13.73;5.33;;;11.10;99.90;;;;;;5018815;28;20432;-76
2021/04/03 07:31:09;;;;;;;15.13;5.03;;;10.90;99.90;;;;;;4976681;28;20456;-76
2021/04/03 07:33:47;;;;;;;15.10;5.47;;;10.70;99.90;;;;;;4974960;28;20251;-76
2021/04/03 07:36:13;;;;;;;14.70;6.37;;;10.20;99.90;;;;;;5005690;28;20485;-76
2021/04/03 07:38:38;;;;;;;14.57;4.50;;;10.10;99.90;;;;;;4984994;28;20435;-76
2021/04/03 07:41:16;;;;;;;14.37;5.73;;;10.00;99.90;;;;;;4978160;28;20201;-76
2021/04/03 07:44:40;;;;;;;14.13;6.73;;;9.90;99.90;;;;;;4982020;28;20511;-76
2021/04/03 07:47:49;;;;;;;18.83;5.97;;;9.80;99.90;;;;;;5006515;28;20442;-75
2021/04/03 07:53:47;;;;;;;13.07;5.70;;;9.80;99.90;;;;;;4960027;28;20443;-76
2021/04/03 07:56:24;;;;;;;11.77;5.03;;;9.60;99.90;;;;;;4977642;28;20448;-76
2021/04/03 07:58:58;;;;;;;29.23;5.63;;;9.50;99.90;;;;;;4975572;28;20438;-76
2021/04/03 08:01:26;;;;;;;13.40;6.77;;;9.50;99.90;;;;;;4993370;28;20424;-76
2021/04/03 08:04:02;;;;;;;18.60;6.57;;;9.50;99.90;;;;;;4992676;28;20428;-76
2021/04/03 08:06:29;;;;;;;9.40;3.80;;;9.60;99.90;;;;;;4981071;28;20462;-76
2021/04/03 08:08:55;;;;;;;12.37;4.00;;;9.80;99.90;;;;;;4988900;28;20851;-76
2021/04/03 08:11:22;;;;;;;17.60;5.00;;;11.00;99.90;;;;;;4991851;28;20413;-76
2021/04/03 08:13:50;;;;;;;12.47;5.50;;;12.30;99.90;;;;;;4979015;28;20222;-76
2021/04/03 08:16:17;;;;;;;7.20;4.13;;;13.20;99.90;;;;;;4975613;28;20445;-77
2021/04/03 08:18:46;;;;;;;19.90;4.67;;;14.20;99.90;;;;;;4989687;28;20791;-77
2021/04/03 08:21:12;;;;;;;21.27;5.90;;;14.10;99.90;;;;;;4991797;28;20445;-77
2021/04/03 08:23:44;;;;;;;11.80;4.03;;;14.30;99.90;;;;;;4979529;28;20490;-77
2021/04/03 08:26:10;;;;;;;6.80;4.00;;;14.20;99.90;;;;;;4983034;28;20451;-76
2021/04/03 08:28:36;;;;;;;15.23;5.30;;;13.60;99.10;;;;;;4998516;28;20431;-77
2021/04/03 08:31:14;;;;;;;14.73;9.03;;;13.50;99.90;;;;;;4986978;28;20244;-77
2021/04/03 08:33:40;;;;;;;13.50;5.80;;;13.80;99.90;;;;;;4996581;28;20453;-77
2021/04/03 08:36:17;;;;;;;8.90;3.93;;;13.70;99.00;;;;;;4993244;28;20432;-76
2021/04/03 08:38:43;;;;;;;9.90;4.93;;;13.50;98.90;;;;;;4984293;28;20844;-77
2021/04/03 08:41:24;;;;;;;10.97;3.73;;;13.40;97.70;;;;;;4995419;28;20455;-77
2021/04/03 08:43:50;;;;;;;10.10;5.10;;;14.20;98.00;;;;;;4996046;28;20423;-77
2021/04/03 08:46:17;;;;;;;10.50;5.50;;;15.00;97.20;;;;;;4986696;28;20468;-77
2021/04/03 08:48:46;;;;;;;15.80;5.77;;;15.40;96.00;;;;;;4967605;28;20941;-77
2021/04/03 08:51:12;;;;;;;12.77;5.70;;;16.10;93.30;;;;;;4969027;28;20491;-78
2021/04/03 08:53:48;;;;;;;11.90;5.30;;;16.80;91.10;;;;;;4978193;28;20516;-78
2021/04/03 08:56:40;;;;;;;10.67;4.97;;;17.00;88.90;;;;;;4975965;28;20471;-77
2021/04/03 08:59:12;;;;;;;11.13;5.37;;;17.60;82.50;;;;;;4979894;28;20443;-77
2021/04/03 09:01:45;;;;;;;18.83;5.50;;;18.00;79.40;;;;;;4984158;28;20429;-78
2021/04/03 09:04:11;;;;;;;12.10;4.70;;;17.80;84.20;;;;;;4980962;28;20431;-78
2021/04/03 09:06:49;;;;;;;9.53;5.10;;;17.70;83.40;;;;;;4994555;28;20456;-78
2021/04/03 09:09:15;;;;;;;11.37;4.80;;;18.00;77.40;;;;;;4992327;28;20464;-78
2021/04/03 09:11:58;;;;;;;13.43;6.17;;;18.30;76.20;;;;;;4995259;28;20446;-77
2021/04/03 09:14:41;;;;;;;10.20;4.40;;;18.70;73.80;;;;;;4977434;28;20669;-77
2021/04/03 09:17:24;;;;;;;17.47;5.73;;;18.90;73.50;;;;;;4960237;28;21190;-77
2021/04/03 09:19:51;;;;;;;17.27;5.67;;;19.20;73.00;;;;;;4987890;28;20453;-78
2021/04/03 09:22:19;;;;;;;14.50;6.83;;;19.50;67.20;;;;;;4976452;28;20468;-77
2021/04/03 09:24:56;;;;;;;13.80;5.33;;;19.60;67.10;;;;;;4994071;28;20436;-77
2021/04/03 09:27:22;;;;;;;15.43;5.80;;;19.90;69.00;;;;;;4975883;28;20820;-78
2021/04/03 09:29:54;;;;;;;15.07;4.93;;;20.20;69.40;;;;;;4979484;28;20452;-78
2021/04/03 09:32:19;;;;;;;12.37;5.30;;;20.10;64.60;;;;;;4974131;28;20507;-78
2021/04/03 09:34:45;;;;;;;11.40;3.90;;;20.20;65.70;;;;;;5008983;28;20512;-77
2021/04/03 09:37:19;;;;;;;16.40;5.40;;;20.40;63.20;;;;;;4976188;28;20181;-77
2021/04/03 09:39:56;;;;;;;15.30;4.97;;;20.60;63.00;;;;;;4982048;28;20705;-77
2021/04/03 09:42:25;;;;;;;15.53;5.17;;;20.90;62.50;;;;;;4975359;28;20400;-77
2021/04/03 09:44:54;;;;;;;14.77;5.63;;;20.60;63.20;;;;;;4988733;28;20427;-77
2021/04/03 09:47:19;;;;;;;15.43;4.80;;;21.40;61.40;;;;;;4993880;28;20904;-77
2021/04/03 09:49:45;;;;;;;13.37;5.17;;;21.60;60.00;;;;;;4986594;28;20543;-77
2021/04/03 09:52:16;;;;;;;13.20;5.23;;;22.00;60.00;;;;;;4987275;28;20217;-77
2021/04/03 09:54:43;;;;;;;20.67;5.17;;;22.00;58.50;;;;;;4981173;28;20432;-77
2021/04/03 09:57:10;;;;;;;11.60;5.33;;;22.40;58.00;;;;;;5025387;28;20526;-77
2021/04/03 09:59:36;;;;;;;13.03;5.57;;;22.30;57.80;;;;;;4979011;28;20445;-77
2021/04/03 10:02:03;;;;;;;16.90;6.23;;;22.10;57.60;;;;;;4978217;28;20943;-77
2021/04/03 10:04:28;;;;;;;12.20;6.00;;;22.10;56.80;;;;;;4976503;28;20436;-76
2021/04/03 10:06:54;;;;;;;11.37;4.77;;;22.00;55.90;;;;;;4989443;28;20507;-77
2021/04/03 10:09:21;;;;;;;16.13;6.20;;;22.20;57.50;;;;;;4978939;28;20201;-77
2021/04/03 10:11:47;;;;;;;9.13;4.97;;;22.50;56.80;;;;;;4982389;28;20455;-77
2021/04/03 10:14:13;;;;;;;12.83;5.10;;;22.50;54.70;;;;;;4993918;28;20408;-76
2021/04/03 10:16:39;;;;;;;9.43;4.77;;;22.60;55.60;;;;;;5005031;28;20444;-77
2021/04/03 10:19:04;;;;;;;10.60;4.73;;;21.90;53.60;;;;;;4977803;28;20500;-77
2021/04/03 10:21:30;;;;;;;13.00;5.10;;;22.30;56.10;;;;;;4976260;28;20655;-77
2021/04/03 10:23:57;;;;;;;15.77;6.93;;;22.30;55.40;;;;;;4974650;28;20197;-78
2021/04/03 10:26:23;;;;;;;16.17;6.27;;;22.10;54.60;;;;;;4988428;28;20539;-75
2021/04/03 10:28:49;;;;;;;11.00;5.63;;;22.10;54.00;;;;;;4977987;28;20484;-78
2021/04/03 10:31:18;;;;;;;11.03;5.90;;;22.50;52.80;;;;;;4991499;28;20236;-76
2021/04/03 10:33:44;;;;;;;15.80;6.40;;;22.20;52.20;;;;;;5009569;28;20437;-76
2021/04/03 10:36:10;;;;;;;12.90;6.43;;;22.70;53.60;;;;;;4996600;28;20466;-76
2021/04/03 10:38:36;;;;;;;17.77;5.70;;;22.60;54.10;;;;;;4984530;28;20425;-76
2021/04/03 10:41:11;;;;;;;12.40;5.50;;;22.10;52.30;;;;;;4996300;28;20455;-76
2021/04/03 10:43:37;;;;;;;18.10;6.70;;;22.00;55.30;;;;;;5021406;28;20497;-77
2021/04/03 10:46:02;;;;;;;11.30;6.00;;;21.80;55.20;;;;;;4975538;28;20981;-76
2021/04/03 10:48:28;;;;;;;9.70;5.23;;;22.10;53.10;;;;;;4983821;28;20227;-76
2021/04/03 10:50:54;;;;;;;12.67;6.53;;;21.50;53.20;;;;;;4990313;28;20225;-76
2021/04/03 10:53:19;;;;;;;16.00;6.27;;;21.70;54.40;;;;;;4995475;28;20527;-77
2021/04/03 10:55:45;;;;;;;14.67;7.87;;;22.00;54.70;;;;;;4993963;28;20188;-76
2021/04/03 10:58:11;;;;;;;13.73;7.40;;;21.50;54.10;;;;;;5028339;28;20181;-77
2021/04/03 11:00:37;;;;;;;13.57;6.97;;;21.50;55.20;;;;;;4996370;28;20276;-77
2021/04/03 11:03:04;;;;;;;12.83;6.37;;;21.60;54.50;;;;;;4988343;28;20435;-76
2021/04/03 11:05:30;;;;;;;14.67;7.10;;;21.70;54.70;;;;;;4989487;28;20456;-77
2021/04/03 11:07:56;;;;;;;9.60;5.83;;;21.80;54.60;;;;;;4987345;28;20431;-76
2021/04/03 11:10:22;;;;;;;11.47;6.37;;;21.30;54.40;;;;;;4987380;28;20447;-79
2021/04/03 11:12:47;;;;;;;11.17;6.23;;;21.50;54.00;;;;;;4985378;28;20208;-76
2021/04/03 11:15:13;;;;;;;12.67;7.67;;;22.10;53.70;;;;;;4977512;28;20421;-77
2021/04/03 11:17:39;;;;;;;15.40;8.63;;;22.00;54.00;;;;;;4975938;28;20174;-77
2021/04/03 11:20:09;;;;;;;12.70;8.33;;;21.60;54.50;;;;;;4987087;28;20467;-77
2021/04/03 11:22:36;;;;;;;18.27;8.23;;;21.70;54.20;;;;;;4976366;28;20461;-77
2021/04/03 11:25:01;;;;;;;12.13;7.07;;;21.30;55.40;;;;;;4992415;28;20433;-75
2021/04/03 11:27:27;;;;;;;15.13;8.20;;;21.80;54.40;;;;;;4968127;28;20447;-77
2021/04/03 11:29:52;;;;;;;16.40;8.27;;;21.20;53.90;;;;;;4974445;28;20565;-77
2021/04/03 11:32:18;;;;;;;8.47;5.83;;;21.30;55.30;;;;;;4970844;28;20542;-76
2021/04/03 11:34:43;;;;;;;9.80;6.57;;;21.30;55.00;;;;;;4977044;28;20174;-77
2021/04/03 11:37:09;;;;;;;13.40;8.87;;;21.20;56.50;;;;;;4981260;28;20185;-76
2021/04/03 11:39:35;;;;;;;14.47;8.00;;;20.90;55.50;;;;;;4983508;28;20205;-75
2021/04/03 11:42:01;;;;;;;17.23;8.30;;;21.00;56.70;;;;;;5010843;28;20431;-77
2021/04/03 11:44:27;;;;;;;29.07;9.47;;;21.40;56.70;;;;;;4977073;28;20436;-76
2021/04/03 11:46:53;;;;;;;11.87;6.93;;;21.00;56.00;;;;;;4982392;28;20247;-77
2021/04/03 11:49:19;;;;;;;12.80;8.40;;;20.60;55.60;;;;;;4989992;28;20677;-75
2021/04/03 11:51:45;;;;;;;16.43;9.60;;;20.10;56.60;;;;;;4988861;28;20173;-77
2021/04/03 11:54:11;;;;;;;19.50;10.00;;;20.30;57.80;;;;;;4995509;28;20460;-77
2021/04/03 11:56:37;;;;;;;16.53;6.73;;;20.40;57.00;;;;;;5000018;28;20436;-76
2021/04/03 11:59:04;;;;;;;17.77;7.70;;;20.40;57.60;;;;;;5000187;28;20179;-77
2021/04/03 12:01:29;;;;;;;13.67;8.40;;;20.80;57.60;;;;;;4994794;28;20173;-79
2021/04/03 12:03:55;;;;;;;12.43;7.77;;;21.40;57.80;;;;;;4985488;28;20431;-76
2021/04/03 12:06:20;;;;;;;13.00;8.40;;;21.00;55.70;;;;;;4977982;28;20662;-78
2021/04/03 12:08:46;;;;;;;15.70;10.57;;;20.60;56.20;;;;;;4980105;28;20186;-78
2021/04/03 12:11:11;;;;;;;21.00;14.30;;;20.10;57.00;;;;;;4978637;28;20200;-77
2021/04/03 12:13:37;;;;;;;18.50;11.23;;;20.50;59.00;;;;;;4987303;28;20173;-78
2021/04/03 12:16:03;;;;;;;12.53;8.50;;;20.70;58.50;;;;;;5030641;28;20191;-78
2021/04/03 12:18:29;;;;;;;13.40;7.50;;;20.30;59.20;;;;;;4997727;28;20191;-78
2021/04/03 12:20:55;;;;;;;17.83;10.67;;;20.80;58.40;;;;;;4996325;28;20212;-77
2021/04/03 12:23:21;;;;;;;16.87;8.50;;;21.10;57.00;;;;;;4997669;28;20923;-77
2021/04/03 12:25:46;;;;;;;10.70;7.73;;;21.00;56.30;;;;;;4998478;28;20447;-76
2021/04/03 12:28:15;;;;;;;8.00;7.00;;;20.90;56.60;;;;;;4991662;28;20173;-76
2021/04/03 12:30:40;;;;;;;11.93;6.83;;;21.20;57.40;;;;;;4975123;28;20208;-76
2021/04/03 12:33:06;;;;;;;13.90;7.80;;;21.70;57.10;;;;;;4981732;28;20798;-76
2021/04/03 12:35:32;;;;;;;19.27;7.10;;;21.80;55.80;;;;;;4976495;28;20197;-76
2021/04/03 12:37:57;;;;;;;16.90;8.17;;;21.70;54.90;;;;;;4976467;28;20542;-76
2021/04/03 12:40:23;;;;;;;17.83;15.40;;;21.80;56.60;;;;;;4993147;28;20243;-77
2021/04/03 12:42:49;;;;;;;10.20;7.40;;;21.20;56.30;;;;;;4995519;28;20203;-77
2021/04/03 12:45:15;;;;;;;11.53;7.40;;;20.80;55.00;;;;;;4994893;28;20565;-77
2021/04/03 12:47:40;;;;;;;11.10;7.17;;;20.40;55.10;;;;;;4990710;28;20181;-77
2021/04/03 12:50:08;;;;;;;10.57;6.70;;;20.50;55.70;;;;;;4977964;28;20516;-77
2021/04/03 12:52:34;;;;;;;10.20;6.33;;;20.40;55.30;;;;;;4977920;28;20169;-77